Time;durP1;ratioP1;P1;durP2;ratioP2;P2;SDS_P1;SDS_P2;PMS_P1;PMS_P2;Temp;Humidity;BMP_temperature;BMP_pressure;BME280_temperature;BME280_humidity;BME280_pressure;Samples;Min_cycle;Max_cycle;Signal;HPM_P1;HPM_P2
2022/11/04 00:09:42;;;;;;;19.2;27.6;;;;;;;8.3;81.5;98320;;;;
2022/11/04 00:41:42;;;;;;;17.3;24.5;;;;;;;9.1;78.8;98270;;;;
2022/11/04 00:51:42;;;;;;;17.3;24.5;;;;;;;9.1;79.1;98270;;;;
2022/11/04 01:02:42;;;;;;;12.7;19.6;;;;;;;8.9;79.7;98250;;;;
2022/11/04 01:12:42;;;;;;;12.7;19.6;;;;;;;9;78.7;98240;;;;
2022/11/04 01:23:42;;;;;;;12.7;19.6;;;;;;;9.1;78.4;98240;;;;
2022/11/04 01:33:42;;;;;;;11.4;16.6;;;;;;;8.9;79.2;98230;;;;
2022/11/04 01:43:42;;;;;;;11.4;16.6;;;;;;;8.7;79.7;98220;;;;
2022/11/04 01:54:42;;;;;;;11.4;16.6;;;;;;;8.6;79.8;98190;;;;
2022/11/04 02:05:42;;;;;;;10.8;16;;;;;;;8.7;79.2;98170;;;;
2022/11/04 02:15:42;;;;;;;10.8;16;;;;;;;9;78.1;98160;;;;
2022/11/04 02:25:42;;;;;;;10.8;16;;;;;;;9.1;77.8;98150;;;;
2022/11/04 02:35:42;;;;;;;8;11.6;;;;;;;9.1;77.7;98130;;;;
2022/11/04 02:46:42;;;;;;;8;11.6;;;;;;;9.2;77.3;98120;;;;
2022/11/04 02:56:42;;;;;;;8;11.6;;;;;;;9.4;76.5;98120;;;;
2022/11/04 03:07:42;;;;;;;7.4;11.1;;;;;;;9.6;75.4;98110;;;;
2022/11/04 03:17:42;;;;;;;7.4;11.1;;;;;;;9.8;75.1;98110;;;;
2022/11/04 03:28:42;;;;;;;8.4;13.3;;;;;;;9.8;76;98110;;;;
2022/11/04 03:38:42;;;;;;;8.4;13.3;;;;;;;9.4;77.4;98090;;;;
2022/11/04 03:49:42;;;;;;;8.4;13.3;;;;;;;9.2;77.9;98090;;;;
2022/11/04 04:00:42;;;;;;;10.6;14.5;;;;;;;9.1;78.5;98080;;;;
2022/11/04 04:11:42;;;;;;;10.6;14.5;;;;;;;8.8;79.6;98060;;;;
2022/11/04 04:21:42;;;;;;;10.6;14.5;;;;;;;8.6;79.6;98060;;;;
2022/11/04 04:32:42;;;;;;;11.6;15.5;;;;;;;8.4;80.2;98050;;;;
2022/11/04 04:53:42;;;;;;;11.6;15.5;;;;;;;8;81.4;98030;;;;
2022/11/04 05:03:42;;;;;;;9.8;14.5;;;;;;;7.8;81.7;98030;;;;
2022/11/04 05:14:42;;;;;;;9.8;14.5;;;;;;;7.5;83;98020;;;;
2022/11/04 05:24:42;;;;;;;9.8;14.5;;;;;;;7.5;83.1;98020;;;;
2022/11/04 05:35:42;;;;;;;9.1;16.2;;;;;;;7.5;83.2;98010;;;;
2022/11/04 05:46:42;;;;;;;9.1;16.2;;;;;;;7.4;83.5;98010;;;;
2022/11/04 05:56:42;;;;;;;10;16.3;;;;;;;7.4;83.7;98010;;;;
2022/11/04 06:07:42;;;;;;;10;16.3;;;;;;;7.4;83.5;98000;;;;
2022/11/04 06:17:42;;;;;;;10;16.3;;;;;;;7.6;83.1;98020;;;;
2022/11/04 06:27:42;;;;;;;10;17;;;;;;;7.3;84;98020;;;;
2022/11/04 06:38:42;;;;;;;10;17;;;;;;;7.4;84.4;98030;;;;
2022/11/04 06:48:42;;;;;;;10;17;;;;;;;7.7;85.3;98040;;;;
2022/11/04 06:59:42;;;;;;;12.2;16.7;;;;;;;8.2;84.8;98030;;;;
2022/11/04 07:10:42;;;;;;;12.2;16.7;;;;;;;8.6;83.9;98020;;;;
2022/11/04 07:20:42;;;;;;;12.2;16.7;;;;;;;8.8;83.1;98010;;;;
2022/11/04 07:31:42;;;;;;;9;13.8;;;;;;;8.9;81;98000;;;;
2022/11/04 07:42:42;;;;;;;9;13.8;;;;;;;9.1;78.6;97990;;;;
2022/11/04 07:52:42;;;;;;;9;13.8;;;;;;;9.6;76.9;97970;;;;
2022/11/04 08:02:43;;;;;;;7.4;13.5;;;;;;;10.6;74.3;97970;;;;
2022/11/04 08:13:42;;;;;;;7.4;13.5;;;;;;;11.1;74.3;97960;;;;
2022/11/04 08:23:42;;;;;;;7.4;13.5;;;;;;;11.2;72.3;97940;;;;
2022/11/04 08:34:42;;;;;;;5.6;9.4;;;;;;;11.4;71.8;97940;;;;
2022/11/04 08:44:42;;;;;;;5.6;9.4;;;;;;;11.5;70.9;97930;;;;
2022/11/04 08:54:43;;;;;;;5.6;9.4;;;;;;;12.2;70.2;97920;;;;
2022/11/04 09:05:45;;;;;;;6;9.2;;;;;;;13.1;68;97910;;;;
2022/11/04 09:16:43;;;;;;;6;9.2;;;;;;;13.8;65.7;97890;;;;
2022/11/04 09:27:42;;;;;;;5.7;10.9;;;;;;;14.2;63.9;97870;;;;
2022/11/04 09:37:42;;;;;;;5.7;10.9;;;;;;;14.8;63.2;97860;;;;
2022/11/04 09:48:42;;;;;;;5.7;10.9;;;;;;;15.5;61.5;97840;;;;
2022/11/04 09:59:42;;;;;;;4.8;8.5;;;;;;;15.8;60.7;97840;;;;
2022/11/04 10:10:44;;;;;;;4.8;8.5;;;;;;;16.5;59.7;97820;;;;
2022/11/04 10:21:42;;;;;;;4.8;8.5;;;;;;;16.9;57.3;97810;;;;
2022/11/04 10:32:44;;;;;;;5.1;10.2;;;;;;;17.2;56.7;97810;;;;
2022/11/04 10:42:42;;;;;;;5.1;10.2;;;;;;;17.2;57;97800;;;;
2022/11/04 10:52:42;;;;;;;5.1;10.2;;;;;;;17.2;56.9;97800;;;;
2022/11/04 11:03:42;;;;;;;4.6;8.9;;;;;;;17.3;58;97800;;;;
2022/11/04 11:13:42;;;;;;;4.6;8.9;;;;;;;17.5;57;97790;;;;
2022/11/04 11:23:42;;;;;;;4.6;8.9;;;;;;;17.5;57.7;97780;;;;
2022/11/04 11:33:42;;;;;;;5.8;13.3;;;;;;;17.5;57.4;97770;;;;
2022/11/04 11:44:43;;;;;;;5.8;13.3;;;;;;;17.5;57.4;97750;;;;
2022/11/04 11:54:43;;;;;;;5.8;13.3;;;;;;;17.4;56.8;97750;;;;
2022/11/04 12:04:42;;;;;;;5.5;9.8;;;;;;;17.4;56;97740;;;;
2022/11/04 12:15:43;;;;;;;5.5;9.8;;;;;;;17.5;59.4;97740;;;;
2022/11/04 12:25:42;;;;;;;5.5;9.8;;;;;;;17.4;60;97730;;;;
2022/11/04 12:35:42;;;;;;;6.5;14.4;;;;;;;17.2;60.1;97720;;;;
2022/11/04 12:46:42;;;;;;;6.5;14.4;;;;;;;16.9;61.4;97720;;;;
2022/11/04 12:57:42;;;;;;;7.7;11.9;;;;;;;16.9;61.9;97720;;;;
2022/11/04 13:07:42;;;;;;;7.7;11.9;;;;;;;16.9;62.6;97720;;;;
2022/11/04 13:18:44;;;;;;;7.7;11.9;;;;;;;16.8;62.1;97720;;;;
2022/11/04 13:28:42;;;;;;;7.6;12.2;;;;;;;16.5;62.1;97720;;;;
2022/11/04 13:39:42;;;;;;;7.6;12.2;;;;;;;16.3;62.9;97730;;;;
2022/11/04 13:49:42;;;;;;;7.6;12.2;;;;;;;16.1;63.2;97730;;;;
2022/11/04 14:00:42;;;;;;;8.2;14.2;;;;;;;15.9;63.8;97730;;;;
2022/11/04 14:11:44;;;;;;;8.2;14.2;;;;;;;15.8;64.5;97740;;;;
2022/11/04 14:21:42;;;;;;;8.2;14.2;;;;;;;15.6;65;97740;;;;
2022/11/04 14:31:42;;;;;;;9;14.7;;;;;;;15.5;65.3;97740;;;;
2022/11/04 14:41:42;;;;;;;9;14.7;;;;;;;15.3;66.1;97730;;;;
2022/11/04 14:51:42;;;;;;;9;14.7;;;;;;;15.1;66;97730;;;;
2022/11/04 15:02:42;;;;;;;10.4;17.4;;;;;;;14.9;66.4;97740;;;;
2022/11/04 15:12:49;;;;;;;10.4;17.4;;;;;;;14.7;67.4;97740;;;;
2022/11/04 15:22:42;;;;;;;10.4;17.4;;;;;;;14.6;69.5;97750;;;;
2022/11/04 15:33:42;;;;;;;13.2;19.5;;;;;;;14.4;69.8;97750;;;;
2022/11/04 15:44:42;;;;;;;13.2;19.5;;;;;;;14.2;71;97730;;;;
2022/11/04 15:54:42;;;;;;;13.2;19.5;;;;;;;14.1;72.7;97730;;;;
2022/11/04 16:05:42;;;;;;;13.6;20.9;;;;;;;13.9;74.6;97710;;;;
2022/11/04 16:15:42;;;;;;;13.6;20.9;;;;;;;13.8;75;97720;;;;
2022/11/04 16:26:43;;;;;;;25.9;35.3;;;;;;;13.5;75;97700;;;;
2022/11/04 16:37:42;;;;;;;25.9;35.3;;;;;;;13.3;75.5;97710;;;;
2022/11/04 16:48:42;;;;;;;25.9;35.3;;;;;;;13.3;75.6;97700;;;;
2022/11/04 16:59:42;;;;;;;21.5;26.6;;;;;;;13.3;76.2;97700;;;;
2022/11/04 17:09:42;;;;;;;21.5;26.6;;;;;;;13.4;76;97710;;;;
2022/11/04 17:19:42;;;;;;;21.5;26.6;;;;;;;13.4;76.1;97710;;;;
2022/11/04 17:30:42;;;;;;;36.4;48;;;;;;;13.4;76;97720;;;;
2022/11/04 17:51:42;;;;;;;36.4;48;;;;;;;13.4;77;97720;;;;
2022/11/04 18:01:42;;;;;;;24.2;31.4;;;;;;;13.2;78.3;97720;;;;
2022/11/04 18:12:42;;;;;;;24.2;31.4;;;;;;;13.1;79.4;97720;;;;
2022/11/04 18:22:42;;;;;;;24.2;31.4;;;;;;;12.9;81.1;97720;;;;
2022/11/04 18:33:42;;;;;;;66.4;86.4;;;;;;;12.9;80.9;97720;;;;
2022/11/04 18:44:42;;;;;;;66.4;86.4;;;;;;;12.8;82.2;97720;;;;
2022/11/04 18:55:42;;;;;;;66.4;86.4;;;;;;;12.7;83.3;97720;;;;
2022/11/04 19:06:42;;;;;;;43.8;55.5;;;;;;;12.8;83;97730;;;;
2022/11/04 19:16:42;;;;;;;43.8;55.5;;;;;;;12.7;83.6;97740;;;;
2022/11/04 19:26:42;;;;;;;58.9;77.8;;;;;;;12.7;83.6;97760;;;;
2022/11/04 19:37:42;;;;;;;58.9;77.8;;;;;;;12.7;84.6;97760;;;;
2022/11/04 19:47:42;;;;;;;58.9;77.8;;;;;;;12.5;85;97760;;;;
2022/11/04 19:58:42;;;;;;;41.1;49.2;;;;;;;12.3;86.9;97750;;;;
2022/11/04 20:08:42;;;;;;;41.1;49.2;;;;;;;12.2;87.2;97750;;;;
2022/11/04 20:19:42;;;;;;;41.1;49.2;;;;;;;12.2;87.5;97750;;;;
2022/11/04 20:30:42;;;;;;;26.1;31.5;;;;;;;12.4;86.7;97770;;;;
2022/11/04 20:40:42;;;;;;;26.1;31.5;;;;;;;12.3;86.6;97790;;;;
2022/11/04 20:50:42;;;;;;;26.1;31.5;;;;;;;12.4;86.6;97790;;;;
2022/11/04 21:01:43;;;;;;;28.8;33.2;;;;;;;12.4;86.2;97820;;;;
2022/11/04 21:11:42;;;;;;;28.8;33.2;;;;;;;12.4;86.3;97810;;;;
2022/11/04 21:21:42;;;;;;;28.8;33.2;;;;;;;12.4;86.4;97830;;;;
2022/11/04 21:32:42;;;;;;;30;33.7;;;;;;;12.3;86.5;97830;;;;
2022/11/04 21:42:42;;;;;;;30;33.7;;;;;;;12.4;86.4;97830;;;;
2022/11/04 21:53:42;;;;;;;30;33.7;;;;;;;12.3;86.4;97830;;;;
2022/11/04 22:03:42;;;;;;;34.3;42.5;;;;;;;12.3;86.6;97850;;;;
2022/11/04 22:13:42;;;;;;;34.3;42.5;;;;;;;12.3;86.4;97850;;;;
2022/11/04 22:24:42;;;;;;;34.3;42.5;;;;;;;12.3;86.4;97850;;;;
2022/11/04 22:34:42;;;;;;;33.3;40.7;;;;;;;12.1;86.8;97840;;;;
2022/11/04 22:45:42;;;;;;;33.3;40.7;;;;;;;12;86.8;97840;;;;
2022/11/04 22:55:42;;;;;;;33.3;40.7;;;;;;;12.1;86.8;97830;;;;
2022/11/04 23:06:42;;;;;;;28.8;37.8;;;;;;;12;86.8;97830;;;;
2022/11/04 23:18:43;;;;;;;28.8;37.8;;;;;;;12.1;86.6;97830;;;;
2022/11/04 23:38:42;;;;;;;26;35.2;;;;;;;11.9;87.3;97840;;;;
